sensor_id;sensor_type;location;lat;lon;timestamp;P1;durP1;ratioP1;P2;durP2;ratioP2
51288;SDS011;37372;52.294;5.152;2022-12-24T00:01:48;36.95;;;5.80;;
51288;SDS011;37372;52.294;5.152;2022-12-24T00:04:13;27.63;;;4.15;;
51288;SDS011;37372;52.294;5.152;2022-12-24T00:06:39;27.05;;;5.35;;
51288;SDS011;37372;52.294;5.152;2022-12-24T00:09:04;23.33;;;3.58;;
51288;SDS011;37372;52.294;5.152;2022-12-24T00:11:30;19.92;;;3.90;;
51288;SDS011;37372;52.294;5.152;2022-12-24T00:13:55;24.05;;;5.07;;
51288;SDS011;37372;52.294;5.152;2022-12-24T00:16:20;31.65;;;4.82;;
51288;SDS011;37372;52.294;5.152;2022-12-24T00:18:46;23.40;;;3.30;;
51288;SDS011;37372;52.294;5.152;2022-12-24T00:21:11;29.45;;;3.90;;
51288;SDS011;37372;52.294;5.152;2022-12-24T00:23:37;29.70;;;4.45;;
51288;SDS011;37372;52.294;5.152;2022-12-24T00:26:02;25.92;;;4.70;;
51288;SDS011;37372;52.294;5.152;2022-12-24T00:28:28;25.20;;;4.35;;
51288;SDS011;37372;52.294;5.152;2022-12-24T00:30:53;29.65;;;5.80;;
51288;SDS011;37372;52.294;5.152;2022-12-24T00:33:19;27.38;;;3.95;;
51288;SDS011;37372;52.294;5.152;2022-12-24T00:35:48;34.60;;;5.10;;
51288;SDS011;37372;52.294;5.152;2022-12-24T00:38:15;29.50;;;4.57;;
51288;SDS011;37372;52.294;5.152;2022-12-24T00:40:41;31.10;;;5.47;;
51288;SDS011;37372;52.294;5.152;2022-12-24T00:43:09;38.33;;;5.70;;
51288;SDS011;37372;52.294;5.152;2022-12-24T00:45:34;34.28;;;5.68;;
51288;SDS011;37372;52.294;5.152;2022-12-24T00:47:59;27.38;;;5.53;;
51288;SDS011;37372;52.294;5.152;2022-12-24T00:50:25;28.33;;;5.20;;
51288;SDS011;37372;52.294;5.152;2022-12-24T00:52:50;29.88;;;5.40;;
51288;SDS011;37372;52.294;5.152;2022-12-24T00:55:15;35.40;;;5.40;;
51288;SDS011;37372;52.294;5.152;2022-12-24T00:57:40;31.55;;;4.90;;
51288;SDS011;37372;52.294;5.152;2022-12-24T01:00:06;29.15;;;4.80;;
51288;SDS011;37372;52.294;5.152;2022-12-24T01:02:33;33.60;;;5.72;;
51288;SDS011;37372;52.294;5.152;2022-12-24T01:04:58;34.97;;;5.63;;
51288;SDS011;37372;52.294;5.152;2022-12-24T01:07:40;37.20;;;5.70;;
51288;SDS011;37372;52.294;5.152;2022-12-24T01:10:08;35.78;;;5.03;;
51288;SDS011;37372;52.294;5.152;2022-12-24T01:12:35;31.40;;;4.53;;
51288;SDS011;37372;52.294;5.152;2022-12-24T01:15:01;32.40;;;4.15;;
51288;SDS011;37372;52.294;5.152;2022-12-24T01:17:26;32.58;;;5.18;;
51288;SDS011;37372;52.294;5.152;2022-12-24T01:19:52;34.33;;;4.75;;
51288;SDS011;37372;52.294;5.152;2022-12-24T01:22:17;32.22;;;5.22;;
51288;SDS011;37372;52.294;5.152;2022-12-24T01:24:43;33.35;;;4.43;;
51288;SDS011;37372;52.294;5.152;2022-12-24T01:27:08;31.70;;;5.88;;
51288;SDS011;37372;52.294;5.152;2022-12-24T01:29:34;41.22;;;6.90;;
51288;SDS011;37372;52.294;5.152;2022-12-24T01:31:59;34.15;;;7.38;;
51288;SDS011;37372;52.294;5.152;2022-12-24T01:34:25;25.83;;;4.88;;
51288;SDS011;37372;52.294;5.152;2022-12-24T01:36:50;45.03;;;7.00;;
51288;SDS011;37372;52.294;5.152;2022-12-24T01:39:15;36.85;;;6.47;;
51288;SDS011;37372;52.294;5.152;2022-12-24T01:41:41;39.22;;;5.10;;
51288;SDS011;37372;52.294;5.152;2022-12-24T01:46:54;40.45;;;5.25;;
51288;SDS011;37372;52.294;5.152;2022-12-24T01:49:32;44.00;;;7.28;;
51288;SDS011;37372;52.294;5.152;2022-12-24T01:52:00;35.97;;;5.57;;
51288;SDS011;37372;52.294;5.152;2022-12-24T01:57:04;51.33;;;7.50;;
51288;SDS011;37372;52.294;5.152;2022-12-24T01:59:33;27.05;;;5.45;;
51288;SDS011;37372;52.294;5.152;2022-12-24T02:02:01;35.13;;;5.40;;
51288;SDS011;37372;52.294;5.152;2022-12-24T02:04:29;32.63;;;5.28;;
51288;SDS011;37372;52.294;5.152;2022-12-24T02:07:00;33.38;;;8.90;;
51288;SDS011;37372;52.294;5.152;2022-12-24T02:09:25;35.97;;;4.80;;
51288;SDS011;37372;52.294;5.152;2022-12-24T02:11:51;40.00;;;5.88;;
51288;SDS011;37372;52.294;5.152;2022-12-24T02:14:17;25.40;;;4.93;;
51288;SDS011;37372;52.294;5.152;2022-12-24T02:19:39;32.00;;;5.22;;
51288;SDS011;37372;52.294;5.152;2022-12-24T02:25:18;34.67;;;4.32;;
51288;SDS011;37372;52.294;5.152;2022-12-24T02:27:54;38.40;;;4.72;;
51288;SDS011;37372;52.294;5.152;2022-12-24T02:38:28;35.53;;;5.28;;
51288;SDS011;37372;52.294;5.152;2022-12-24T02:41:02;30.38;;;4.68;;
51288;SDS011;37372;52.294;5.152;2022-12-24T02:43:33;38.90;;;6.13;;
51288;SDS011;37372;52.294;5.152;2022-12-24T02:46:09;43.08;;;5.82;;
51288;SDS011;37372;52.294;5.152;2022-12-24T02:48:38;31.80;;;4.55;;
51288;SDS011;37372;52.294;5.152;2022-12-24T02:51:07;31.98;;;6.03;;
51288;SDS011;37372;52.294;5.152;2022-12-24T02:53:35;37.40;;;7.97;;
51288;SDS011;37372;52.294;5.152;2022-12-24T02:59:18;28.73;;;5.07;;
51288;SDS011;37372;52.294;5.152;2022-12-24T03:12:33;26.25;;;5.03;;
51288;SDS011;37372;52.294;5.152;2022-12-24T03:15:06;30.40;;;5.70;;
51288;SDS011;37372;52.294;5.152;2022-12-24T03:17:34;30.23;;;6.18;;
51288;SDS011;37372;52.294;5.152;2022-12-24T03:20:03;26.77;;;5.25;;
51288;SDS011;37372;52.294;5.152;2022-12-24T03:22:30;33.05;;;6.07;;
51288;SDS011;37372;52.294;5.152;2022-12-24T03:24:58;37.53;;;4.50;;
51288;SDS011;37372;52.294;5.152;2022-12-24T03:27:24;43.80;;;5.88;;
51288;SDS011;37372;52.294;5.152;2022-12-24T03:29:51;37.92;;;7.38;;
51288;SDS011;37372;52.294;5.152;2022-12-24T03:32:21;29.67;;;4.63;;
51288;SDS011;37372;52.294;5.152;2022-12-24T03:34:48;33.33;;;4.85;;
51288;SDS011;37372;52.294;5.152;2022-12-24T03:37:13;46.88;;;6.15;;
51288;SDS011;37372;52.294;5.152;2022-12-24T03:39:39;40.35;;;5.70;;
51288;SDS011;37372;52.294;5.152;2022-12-24T03:42:04;30.25;;;6.25;;
51288;SDS011;37372;52.294;5.152;2022-12-24T03:44:29;38.10;;;5.38;;
51288;SDS011;37372;52.294;5.152;2022-12-24T03:46:55;38.60;;;6.10;;
51288;SDS011;37372;52.294;5.152;2022-12-24T03:49:20;31.90;;;5.38;;
51288;SDS011;37372;52.294;5.152;2022-12-24T03:51:45;36.47;;;5.65;;
51288;SDS011;37372;52.294;5.152;2022-12-24T03:54:11;24.38;;;4.95;;
51288;SDS011;37372;52.294;5.152;2022-12-24T03:56:36;31.73;;;5.38;;
51288;SDS011;37372;52.294;5.152;2022-12-24T03:59:02;30.67;;;4.45;;
51288;SDS011;37372;52.294;5.152;2022-12-24T04:01:27;30.63;;;4.78;;
51288;SDS011;37372;52.294;5.152;2022-12-24T04:03:52;31.98;;;6.15;;
51288;SDS011;37372;52.294;5.152;2022-12-24T04:06:18;24.05;;;3.72;;
51288;SDS011;37372;52.294;5.152;2022-12-24T04:08:43;30.27;;;5.10;;
51288;SDS011;37372;52.294;5.152;2022-12-24T04:11:11;26.02;;;4.82;;
51288;SDS011;37372;52.294;5.152;2022-12-24T04:13:38;28.30;;;6.03;;
51288;SDS011;37372;52.294;5.152;2022-12-24T04:16:05;21.60;;;3.78;;
51288;SDS011;37372;52.294;5.152;2022-12-24T04:18:33;30.27;;;5.47;;
51288;SDS011;37372;52.294;5.152;2022-12-24T04:20:59;24.33;;;4.43;;
51288;SDS011;37372;52.294;5.152;2022-12-24T04:23:24;32.92;;;4.30;;
51288;SDS011;37372;52.294;5.152;2022-12-24T04:25:50;30.05;;;3.72;;
51288;SDS011;37372;52.294;5.152;2022-12-24T04:28:16;16.15;;;4.03;;
51288;SDS011;37372;52.294;5.152;2022-12-24T04:30:42;32.70;;;4.18;;
51288;SDS011;37372;52.294;5.152;2022-12-24T04:33:07;35.00;;;4.28;;
51288;SDS011;37372;52.294;5.152;2022-12-24T04:35:33;32.53;;;4.15;;
51288;SDS011;37372;52.294;5.152;2022-12-24T04:38:03;30.85;;;5.30;;
51288;SDS011;37372;52.294;5.152;2022-12-24T04:40:32;37.85;;;5.70;;
51288;SDS011;37372;52.294;5.152;2022-12-24T04:42:58;29.88;;;4.63;;
51288;SDS011;37372;52.294;5.152;2022-12-24T04:45:23;36.00;;;5.90;;
51288;SDS011;37372;52.294;5.152;2022-12-24T04:47:49;24.83;;;4.03;;
51288;SDS011;37372;52.294;5.152;2022-12-24T04:50:14;33.47;;;4.53;;
51288;SDS011;37372;52.294;5.152;2022-12-24T04:52:40;32.63;;;5.97;;
51288;SDS011;37372;52.294;5.152;2022-12-24T04:55:05;24.75;;;3.83;;
51288;SDS011;37372;52.294;5.152;2022-12-24T04:57:31;41.22;;;6.28;;
51288;SDS011;37372;52.294;5.152;2022-12-24T04:59:57;29.58;;;4.70;;
51288;SDS011;37372;52.294;5.152;2022-12-24T05:02:23;33.17;;;4.70;;
51288;SDS011;37372;52.294;5.152;2022-12-24T05:04:49;35.83;;;5.28;;
51288;SDS011;37372;52.294;5.152;2022-12-24T05:07:14;28.05;;;4.82;;
51288;SDS011;37372;52.294;5.152;2022-12-24T05:09:40;37.80;;;6.85;;
51288;SDS011;37372;52.294;5.152;2022-12-24T05:12:05;32.85;;;5.07;;
51288;SDS011;37372;52.294;5.152;2022-12-24T05:14:31;25.30;;;3.92;;
51288;SDS011;37372;52.294;5.152;2022-12-24T05:16:56;36.67;;;4.03;;
51288;SDS011;37372;52.294;5.152;2022-12-24T05:19:22;40.85;;;5.38;;
51288;SDS011;37372;52.294;5.152;2022-12-24T05:21:47;33.72;;;4.30;;
51288;SDS011;37372;52.294;5.152;2022-12-24T05:24:32;34.65;;;5.13;;
51288;SDS011;37372;52.294;5.152;2022-12-24T05:27:16;26.73;;;4.95;;
51288;SDS011;37372;52.294;5.152;2022-12-24T05:29:42;24.73;;;3.80;;
51288;SDS011;37372;52.294;5.152;2022-12-24T05:32:07;28.55;;;4.50;;
51288;SDS011;37372;52.294;5.152;2022-12-24T05:34:32;37.58;;;5.97;;
51288;SDS011;37372;52.294;5.152;2022-12-24T05:36:58;33.85;;;4.15;;
51288;SDS011;37372;52.294;5.152;2022-12-24T05:39:23;40.30;;;5.55;;
51288;SDS011;37372;52.294;5.152;2022-12-24T05:41:48;38.83;;;5.03;;
51288;SDS011;37372;52.294;5.152;2022-12-24T05:44:14;27.88;;;4.95;;
51288;SDS011;37372;52.294;5.152;2022-12-24T05:46:40;25.83;;;4.13;;
51288;SDS011;37372;52.294;5.152;2022-12-24T05:49:06;35.97;;;4.53;;
51288;SDS011;37372;52.294;5.152;2022-12-24T05:51:32;32.10;;;6.07;;
51288;SDS011;37372;52.294;5.152;2022-12-24T05:53:57;40.28;;;6.60;;
51288;SDS011;37372;52.294;5.152;2022-12-24T05:56:23;40.28;;;5.05;;
51288;SDS011;37372;52.294;5.152;2022-12-24T05:58:50;36.83;;;5.07;;
51288;SDS011;37372;52.294;5.152;2022-12-24T06:01:16;29.77;;;5.80;;
51288;SDS011;37372;52.294;5.152;2022-12-24T06:03:42;37.58;;;4.90;;
51288;SDS011;37372;52.294;5.152;2022-12-24T06:06:10;41.60;;;5.35;;
51288;SDS011;37372;52.294;5.152;2022-12-24T06:08:37;43.60;;;5.60;;
51288;SDS011;37372;52.294;5.152;2022-12-24T06:11:04;43.35;;;6.95;;
51288;SDS011;37372;52.294;5.152;2022-12-24T06:13:32;34.20;;;4.18;;
51288;SDS011;37372;52.294;5.152;2022-12-24T06:15:59;32.17;;;5.03;;
51288;SDS011;37372;52.294;5.152;2022-12-24T06:18:27;34.78;;;6.80;;
51288;SDS011;37372;52.294;5.152;2022-12-24T06:20:54;39.10;;;5.25;;
51288;SDS011;37372;52.294;5.152;2022-12-24T06:23:20;45.50;;;6.10;;
51288;SDS011;37372;52.294;5.152;2022-12-24T06:25:46;43.45;;;6.22;;
51288;SDS011;37372;52.294;5.152;2022-12-24T06:28:13;34.22;;;4.82;;
51288;SDS011;37372;52.294;5.152;2022-12-24T06:30:38;31.75;;;6.00;;
51288;SDS011;37372;52.294;5.152;2022-12-24T06:33:04;41.38;;;5.07;;
51288;SDS011;37372;52.294;5.152;2022-12-24T06:35:30;41.17;;;7.07;;
51288;SDS011;37372;52.294;5.152;2022-12-24T06:37:56;45.85;;;6.43;;
51288;SDS011;37372;52.294;5.152;2022-12-24T06:40:21;47.92;;;7.20;;
51288;SDS011;37372;52.294;5.152;2022-12-24T06:42:46;36.70;;;4.47;;
51288;SDS011;37372;52.294;5.152;2022-12-24T06:45:12;28.90;;;5.88;;
51288;SDS011;37372;52.294;5.152;2022-12-24T06:47:37;39.95;;;4.95;;
51288;SDS011;37372;52.294;5.152;2022-12-24T06:50:03;25.67;;;4.78;;
51288;SDS011;37372;52.294;5.152;2022-12-24T06:52:28;36.88;;;6.15;;
51288;SDS011;37372;52.294;5.152;2022-12-24T06:54:54;33.95;;;5.07;;
51288;SDS011;37372;52.294;5.152;2022-12-24T06:57:19;36.72;;;6.28;;
51288;SDS011;37372;52.294;5.152;2022-12-24T06:59:44;34.95;;;5.18;;
51288;SDS011;37372;52.294;5.152;2022-12-24T07:02:09;38.95;;;5.55;;
51288;SDS011;37372;52.294;5.152;2022-12-24T07:04:35;37.42;;;5.28;;
51288;SDS011;37372;52.294;5.152;2022-12-24T07:07:00;38.90;;;6.40;;
51288;SDS011;37372;52.294;5.152;2022-12-24T07:09:25;48.20;;;6.65;;
51288;SDS011;37372;52.294;5.152;2022-12-24T07:11:51;33.40;;;5.85;;
51288;SDS011;37372;52.294;5.152;2022-12-24T07:14:16;47.85;;;5.97;;
51288;SDS011;37372;52.294;5.152;2022-12-24T07:16:42;40.65;;;6.90;;
51288;SDS011;37372;52.294;5.152;2022-12-24T07:19:07;37.85;;;5.72;;
51288;SDS011;37372;52.294;5.152;2022-12-24T07:21:33;35.00;;;6.18;;
51288;SDS011;37372;52.294;5.152;2022-12-24T07:23:58;31.42;;;4.85;;
51288;SDS011;37372;52.294;5.152;2022-12-24T07:26:24;41.95;;;5.20;;
51288;SDS011;37372;52.294;5.152;2022-12-24T07:28:49;40.60;;;7.22;;
51288;SDS011;37372;52.294;5.152;2022-12-24T07:31:14;27.05;;;4.43;;
51288;SDS011;37372;52.294;5.152;2022-12-24T07:33:40;47.50;;;6.63;;
51288;SDS011;37372;52.294;5.152;2022-12-24T07:36:06;42.20;;;6.35;;
51288;SDS011;37372;52.294;5.152;2022-12-24T07:38:42;37.78;;;5.85;;
51288;SDS011;37372;52.294;5.152;2022-12-24T07:41:07;40.00;;;6.78;;
51288;SDS011;37372;52.294;5.152;2022-12-24T07:43:33;34.00;;;6.10;;
51288;SDS011;37372;52.294;5.152;2022-12-24T07:45:58;30.17;;;5.88;;
51288;SDS011;37372;52.294;5.152;2022-12-24T07:48:24;36.63;;;5.18;;
51288;SDS011;37372;52.294;5.152;2022-12-24T07:50:51;30.10;;;6.80;;
51288;SDS011;37372;52.294;5.152;2022-12-24T07:53:16;37.40;;;5.15;;
51288;SDS011;37372;52.294;5.152;2022-12-24T07:55:42;36.78;;;5.18;;
51288;SDS011;37372;52.294;5.152;2022-12-24T07:58:08;38.80;;;8.25;;
51288;SDS011;37372;52.294;5.152;2022-12-24T08:00:33;50.90;;;8.07;;
51288;SDS011;37372;52.294;5.152;2022-12-24T08:02:59;36.28;;;7.10;;
51288;SDS011;37372;52.294;5.152;2022-12-24T08:05:25;45.33;;;7.10;;
51288;SDS011;37372;52.294;5.152;2022-12-24T08:07:51;38.83;;;5.18;;
51288;SDS011;37372;52.294;5.152;2022-12-24T08:10:16;51.00;;;6.18;;
51288;SDS011;37372;52.294;5.152;2022-12-24T08:12:42;40.85;;;6.50;;
51288;SDS011;37372;52.294;5.152;2022-12-24T08:15:07;44.50;;;6.05;;
51288;SDS011;37372;52.294;5.152;2022-12-24T08:17:33;38.55;;;6.15;;
51288;SDS011;37372;52.294;5.152;2022-12-24T08:19:58;49.10;;;6.22;;
51288;SDS011;37372;52.294;5.152;2022-12-24T08:22:24;51.58;;;8.07;;
51288;SDS011;37372;52.294;5.152;2022-12-24T08:24:49;48.75;;;6.90;;
51288;SDS011;37372;52.294;5.152;2022-12-24T08:27:14;40.33;;;7.82;;
51288;SDS011;37372;52.294;5.152;2022-12-24T08:29:40;39.17;;;5.68;;
51288;SDS011;37372;52.294;5.152;2022-12-24T08:32:05;50.72;;;6.85;;
51288;SDS011;37372;52.294;5.152;2022-12-24T08:34:30;40.65;;;6.63;;
51288;SDS011;37372;52.294;5.152;2022-12-24T08:36:56;42.58;;;8.43;;
51288;SDS011;37372;52.294;5.152;2022-12-24T08:39:21;45.08;;;6.63;;
51288;SDS011;37372;52.294;5.152;2022-12-24T08:41:47;50.25;;;7.35;;
51288;SDS011;37372;52.294;5.152;2022-12-24T08:44:12;53.50;;;6.55;;
51288;SDS011;37372;52.294;5.152;2022-12-24T08:46:37;38.92;;;7.60;;
51288;SDS011;37372;52.294;5.152;2022-12-24T08:49:03;38.95;;;6.80;;
51288;SDS011;37372;52.294;5.152;2022-12-24T08:51:28;41.70;;;6.53;;
51288;SDS011;37372;52.294;5.152;2022-12-24T08:53:53;38.72;;;5.95;;
51288;SDS011;37372;52.294;5.152;2022-12-24T08:56:19;36.13;;;7.03;;
51288;SDS011;37372;52.294;5.152;2022-12-24T08:58:44;33.78;;;6.07;;
51288;SDS011;37372;52.294;5.152;2022-12-24T09:01:11;36.00;;;7.75;;
51288;SDS011;37372;52.294;5.152;2022-12-24T09:03:38;40.28;;;7.53;;
51288;SDS011;37372;52.294;5.152;2022-12-24T09:06:04;41.72;;;5.28;;
51288;SDS011;37372;52.294;5.152;2022-12-24T09:08:32;30.63;;;7.68;;
51288;SDS011;37372;52.294;5.152;2022-12-24T09:11:05;42.50;;;7.05;;
51288;SDS011;37372;52.294;5.152;2022-12-24T09:13:32;39.47;;;8.70;;
51288;SDS011;37372;52.294;5.152;2022-12-24T09:15:57;35.30;;;5.47;;
51288;SDS011;37372;52.294;5.152;2022-12-24T09:18:24;41.95;;;7.90;;
51288;SDS011;37372;52.294;5.152;2022-12-24T09:20:49;47.60;;;7.65;;
51288;SDS011;37372;52.294;5.152;2022-12-24T09:23:15;38.63;;;6.50;;
51288;SDS011;37372;52.294;5.152;2022-12-24T09:25:41;36.88;;;4.57;;
51288;SDS011;37372;52.294;5.152;2022-12-24T09:28:07;39.53;;;5.25;;
51288;SDS011;37372;52.294;5.152;2022-12-24T09:30:32;36.20;;;5.85;;
51288;SDS011;37372;52.294;5.152;2022-12-24T09:32:58;43.08;;;6.45;;
51288;SDS011;37372;52.294;5.152;2022-12-24T09:35:23;50.42;;;8.75;;
51288;SDS011;37372;52.294;5.152;2022-12-24T09:37:49;50.92;;;6.25;;
51288;SDS011;37372;52.294;5.152;2022-12-24T09:40:28;39.72;;;6.05;;
51288;SDS011;37372;52.294;5.152;2022-12-24T09:43:01;38.80;;;5.40;;
51288;SDS011;37372;52.294;5.152;2022-12-24T09:45:36;34.10;;;5.38;;
51288;SDS011;37372;52.294;5.152;2022-12-24T09:48:15;40.88;;;6.57;;
51288;SDS011;37372;52.294;5.152;2022-12-24T09:50:45;47.58;;;7.18;;
51288;SDS011;37372;52.294;5.152;2022-12-24T09:53:18;43.05;;;6.15;;
51288;SDS011;37372;52.294;5.152;2022-12-24T09:55:51;43.95;;;8.07;;
51288;SDS011;37372;52.294;5.152;2022-12-24T09:58:28;41.53;;;5.72;;
51288;SDS011;37372;52.294;5.152;2022-12-24T10:00:59;37.78;;;6.00;;
51288;SDS011;37372;52.294;5.152;2022-12-24T10:03:25;41.13;;;7.68;;
51288;SDS011;37372;52.294;5.152;2022-12-24T10:06:03;38.20;;;6.88;;
51288;SDS011;37372;52.294;5.152;2022-12-24T10:16:44;41.05;;;6.15;;
51288;SDS011;37372;52.294;5.152;2022-12-24T10:19:39;44.20;;;8.07;;
51288;SDS011;37372;52.294;5.152;2022-12-24T10:27:15;33.90;;;4.88;;
51288;SDS011;37372;52.294;5.152;2022-12-24T10:29:46;39.80;;;6.82;;
51288;SDS011;37372;52.294;5.152;2022-12-24T10:34:51;32.42;;;5.90;;
51288;SDS011;37372;52.294;5.152;2022-12-24T10:37:22;30.95;;;6.15;;
51288;SDS011;37372;52.294;5.152;2022-12-24T10:39:49;33.55;;;5.32;;
51288;SDS011;37372;52.294;5.152;2022-12-24T10:42:15;34.17;;;5.40;;
51288;SDS011;37372;52.294;5.152;2022-12-24T10:44:46;43.92;;;5.93;;
51288;SDS011;37372;52.294;5.152;2022-12-24T10:47:15;38.15;;;6.25;;
51288;SDS011;37372;52.294;5.152;2022-12-24T10:52:28;36.87;;;6.57;;
51288;SDS011;37372;52.294;5.152;2022-12-24T10:55:08;30.85;;;6.22;;
51288;SDS011;37372;52.294;5.152;2022-12-24T10:57:55;32.50;;;5.50;;
51288;SDS011;37372;52.294;5.152;2022-12-24T11:00:25;32.83;;;5.80;;
51288;SDS011;37372;52.294;5.152;2022-12-24T11:03:04;32.35;;;5.93;;
51288;SDS011;37372;52.294;5.152;2022-12-24T11:05:33;35.88;;;7.70;;
51288;SDS011;37372;52.294;5.152;2022-12-24T11:08:01;35.95;;;5.55;;
51288;SDS011;37372;52.294;5.152;2022-12-24T11:10:28;26.33;;;4.95;;
51288;SDS011;37372;52.294;5.152;2022-12-24T11:12:54;43.55;;;6.60;;
51288;SDS011;37372;52.294;5.152;2022-12-24T11:15:26;40.08;;;6.70;;
51288;SDS011;37372;52.294;5.152;2022-12-24T11:17:59;33.40;;;5.18;;
51288;SDS011;37372;52.294;5.152;2022-12-24T11:20:31;27.35;;;5.43;;
51288;SDS011;37372;52.294;5.152;2022-12-24T11:22:58;23.08;;;5.00;;
51288;SDS011;37372;52.294;5.152;2022-12-24T11:25:26;22.33;;;5.65;;
51288;SDS011;37372;52.294;5.152;2022-12-24T11:27:55;34.40;;;5.57;;
51288;SDS011;37372;52.294;5.152;2022-12-24T11:30:23;23.58;;;5.60;;
51288;SDS011;37372;52.294;5.152;2022-12-24T11:35:28;29.90;;;5.22;;
51288;SDS011;37372;52.294;5.152;2022-12-24T11:40:35;27.48;;;4.97;;
51288;SDS011;37372;52.294;5.152;2022-12-24T11:43:04;24.63;;;4.25;;
51288;SDS011;37372;52.294;5.152;2022-12-24T11:45:37;25.43;;;5.17;;
51288;SDS011;37372;52.294;5.152;2022-12-24T11:48:21;29.95;;;4.47;;
51288;SDS011;37372;52.294;5.152;2022-12-24T11:51:24;28.55;;;4.40;;
51288;SDS011;37372;52.294;5.152;2022-12-24T11:53:55;26.17;;;4.32;;
51288;SDS011;37372;52.294;5.152;2022-12-24T11:56:36;23.33;;;3.40;;
51288;SDS011;37372;52.294;5.152;2022-12-24T12:04:18;17.45;;;4.45;;
51288;SDS011;37372;52.294;5.152;2022-12-24T12:09:38;16.23;;;3.67;;
51288;SDS011;37372;52.294;5.152;2022-12-24T12:12:19;19.83;;;3.38;;
51288;SDS011;37372;52.294;5.152;2022-12-24T12:14:49;31.30;;;3.85;;
51288;SDS011;37372;52.294;5.152;2022-12-24T12:20:25;21.75;;;2.97;;
51288;SDS011;37372;52.294;5.152;2022-12-24T12:23:12;22.02;;;3.47;;
51288;SDS011;37372;52.294;5.152;2022-12-24T12:25:49;22.35;;;4.68;;
51288;SDS011;37372;52.294;5.152;2022-12-24T12:28:21;31.48;;;4.03;;
51288;SDS011;37372;52.294;5.152;2022-12-24T12:31:08;29.08;;;3.80;;
51288;SDS011;37372;52.294;5.152;2022-12-24T12:34:16;23.60;;;3.70;;
51288;SDS011;37372;52.294;5.152;2022-12-24T12:37:08;20.90;;;5.00;;
51288;SDS011;37372;52.294;5.152;2022-12-24T12:39:38;33.72;;;4.18;;
51288;SDS011;37372;52.294;5.152;2022-12-24T12:42:26;26.05;;;3.50;;
51288;SDS011;37372;52.294;5.152;2022-12-24T12:50:31;23.42;;;3.45;;
51288;SDS011;37372;52.294;5.152;2022-12-24T12:53:21;18.65;;;2.80;;
51288;SDS011;37372;52.294;5.152;2022-12-24T12:55:54;29.80;;;5.13;;
51288;SDS011;37372;52.294;5.152;2022-12-24T12:58:28;22.08;;;4.82;;
51288;SDS011;37372;52.294;5.152;2022-12-24T13:01:07;17.13;;;3.60;;
51288;SDS011;37372;52.294;5.152;2022-12-24T13:03:57;29.85;;;4.03;;
51288;SDS011;37372;52.294;5.152;2022-12-24T13:17:53;22.55;;;5.32;;
51288;SDS011;37372;52.294;5.152;2022-12-24T13:20:45;22.45;;;4.95;;
51288;SDS011;37372;52.294;5.152;2022-12-24T13:23:14;35.85;;;5.13;;
51288;SDS011;37372;52.294;5.152;2022-12-24T13:25:44;20.23;;;4.05;;
51288;SDS011;37372;52.294;5.152;2022-12-24T13:30:47;22.08;;;4.22;;
51288;SDS011;37372;52.294;5.152;2022-12-24T13:36:01;26.02;;;5.45;;
51288;SDS011;37372;52.294;5.152;2022-12-24T13:38:40;21.30;;;2.67;;
51288;SDS011;37372;52.294;5.152;2022-12-24T13:49:38;20.17;;;3.17;;
51288;SDS011;37372;52.294;5.152;2022-12-24T13:59:55;24.42;;;3.17;;
51288;SDS011;37372;52.294;5.152;2022-12-24T14:02:24;20.95;;;4.30;;
51288;SDS011;37372;52.294;5.152;2022-12-24T14:04:51;25.90;;;4.85;;
51288;SDS011;37372;52.294;5.152;2022-12-24T14:07:19;21.75;;;3.50;;
51288;SDS011;37372;52.294;5.152;2022-12-24T14:09:47;31.85;;;5.35;;
51288;SDS011;37372;52.294;5.152;2022-12-24T14:12:15;26.55;;;4.05;;
51288;SDS011;37372;52.294;5.152;2022-12-24T14:14:56;19.38;;;4.75;;
51288;SDS011;37372;52.294;5.152;2022-12-24T14:17:22;28.73;;;4.80;;
51288;SDS011;37372;52.294;5.152;2022-12-24T14:19:50;20.00;;;3.35;;
51288;SDS011;37372;52.294;5.152;2022-12-24T14:24:54;30.77;;;4.50;;
51288;SDS011;37372;52.294;5.152;2022-12-24T14:27:39;35.95;;;4.55;;
51288;SDS011;37372;52.294;5.152;2022-12-24T14:30:20;22.05;;;3.28;;
51288;SDS011;37372;52.294;5.152;2022-12-24T14:32:48;28.35;;;5.50;;
51288;SDS011;37372;52.294;5.152;2022-12-24T14:35:18;34.45;;;7.47;;
51288;SDS011;37372;52.294;5.152;2022-12-24T14:38:07;20.10;;;3.92;;
51288;SDS011;37372;52.294;5.152;2022-12-24T14:43:26;15.13;;;3.17;;
51288;SDS011;37372;52.294;5.152;2022-12-24T14:48:44;29.10;;;3.80;;
51288;SDS011;37372;52.294;5.152;2022-12-24T14:57:09;34.58;;;6.40;;
51288;SDS011;37372;52.294;5.152;2022-12-24T15:02:21;44.33;;;5.13;;
51288;SDS011;37372;52.294;5.152;2022-12-24T15:05:05;19.55;;;3.78;;
51288;SDS011;37372;52.294;5.152;2022-12-24T15:07:36;16.30;;;3.30;;
51288;SDS011;37372;52.294;5.152;2022-12-24T15:10:04;32.38;;;5.60;;
51288;SDS011;37372;52.294;5.152;2022-12-24T15:12:43;36.38;;;5.85;;
51288;SDS011;37372;52.294;5.152;2022-12-24T15:15:13;27.75;;;5.55;;
51288;SDS011;37372;52.294;5.152;2022-12-24T15:17:40;22.00;;;4.95;;
51288;SDS011;37372;52.294;5.152;2022-12-24T15:20:09;23.27;;;4.60;;
51288;SDS011;37372;52.294;5.152;2022-12-24T15:22:39;19.88;;;5.20;;
51288;SDS011;37372;52.294;5.152;2022-12-24T15:25:16;28.20;;;6.03;;
51288;SDS011;37372;52.294;5.152;2022-12-24T15:27:46;28.50;;;6.43;;
51288;SDS011;37372;52.294;5.152;2022-12-24T15:30:13;21.77;;;5.30;;
51288;SDS011;37372;52.294;5.152;2022-12-24T15:32:40;28.50;;;6.80;;
51288;SDS011;37372;52.294;5.152;2022-12-24T15:38:04;25.10;;;5.07;;
51288;SDS011;37372;52.294;5.152;2022-12-24T15:40:30;32.92;;;5.40;;
51288;SDS011;37372;52.294;5.152;2022-12-24T15:42:58;29.92;;;6.45;;
51288;SDS011;37372;52.294;5.152;2022-12-24T15:45:30;33.55;;;6.82;;
51288;SDS011;37372;52.294;5.152;2022-12-24T15:48:07;28.17;;;5.13;;
51288;SDS011;37372;52.294;5.152;2022-12-24T15:50:35;26.40;;;5.20;;
51288;SDS011;37372;52.294;5.152;2022-12-24T15:53:02;29.25;;;6.30;;
51288;SDS011;37372;52.294;5.152;2022-12-24T15:55:37;27.83;;;7.05;;
51288;SDS011;37372;52.294;5.152;2022-12-24T15:58:27;28.85;;;5.65;;
51288;SDS011;37372;52.294;5.152;2022-12-24T16:03:32;28.27;;;6.00;;
51288;SDS011;37372;52.294;5.152;2022-12-24T16:06:06;25.48;;;6.03;;
51288;SDS011;37372;52.294;5.152;2022-12-24T16:08:33;31.60;;;5.28;;
51288;SDS011;37372;52.294;5.152;2022-12-24T16:13:57;33.50;;;6.47;;
51288;SDS011;37372;52.294;5.152;2022-12-24T16:16:30;29.33;;;6.72;;
51288;SDS011;37372;52.294;5.152;2022-12-24T16:19:06;24.92;;;5.82;;
51288;SDS011;37372;52.294;5.152;2022-12-24T16:21:42;30.52;;;7.07;;
51288;SDS011;37372;52.294;5.152;2022-12-24T16:24:24;33.10;;;7.72;;
51288;SDS011;37372;52.294;5.152;2022-12-24T16:26:53;25.08;;;6.55;;
51288;SDS011;37372;52.294;5.152;2022-12-24T16:29:18;43.20;;;8.95;;
51288;SDS011;37372;52.294;5.152;2022-12-24T16:34:14;44.20;;;10.07;;
51288;SDS011;37372;52.294;5.152;2022-12-24T16:36:42;37.63;;;12.13;;
51288;SDS011;37372;52.294;5.152;2022-12-24T16:39:10;29.83;;;11.65;;
51288;SDS011;37372;52.294;5.152;2022-12-24T16:41:47;27.42;;;10.57;;
51288;SDS011;37372;52.294;5.152;2022-12-24T16:44:30;25.23;;;9.88;;
51288;SDS011;37372;52.294;5.152;2022-12-24T16:46:56;42.80;;;10.98;;
51288;SDS011;37372;52.294;5.152;2022-12-24T16:49:23;40.10;;;11.57;;
51288;SDS011;37372;52.294;5.152;2022-12-24T16:51:49;30.90;;;12.25;;
51288;SDS011;37372;52.294;5.152;2022-12-24T16:54:14;43.13;;;12.45;;
51288;SDS011;37372;52.294;5.152;2022-12-24T16:56:40;39.75;;;10.65;;
51288;SDS011;37372;52.294;5.152;2022-12-24T16:59:10;55.30;;;12.45;;